sensor_id;sensor_type;location;lat;lon;timestamp;P1;durP1;ratioP1;P2;durP2;ratioP2
76546;SDS011;65390;53.014;8.886;2023-01-26T00:01:15;127.68;;;46.00;;
76546;SDS011;65390;53.014;8.886;2023-01-26T00:03:44;107.25;;;41.60;;
76546;SDS011;65390;53.014;8.886;2023-01-26T00:06:11;107.40;;;40.35;;
76546;SDS011;65390;53.014;8.886;2023-01-26T00:08:41;119.05;;;45.65;;
76546;SDS011;65390;53.014;8.886;2023-01-26T00:11:10;131.93;;;48.08;;
76546;SDS011;65390;53.014;8.886;2023-01-26T00:13:39;125.32;;;44.72;;
76546;SDS011;65390;53.014;8.886;2023-01-26T00:16:10;122.43;;;44.17;;
76546;SDS011;65390;53.014;8.886;2023-01-26T00:18:38;125.32;;;44.25;;
76546;SDS011;65390;53.014;8.886;2023-01-26T00:21:06;108.95;;;40.80;;
76546;SDS011;65390;53.014;8.886;2023-01-26T00:23:36;112.95;;;42.45;;
76546;SDS011;65390;53.014;8.886;2023-01-26T00:26:06;120.68;;;44.97;;
76546;SDS011;65390;53.014;8.886;2023-01-26T00:28:34;117.45;;;43.65;;
76546;SDS011;65390;53.014;8.886;2023-01-26T00:31:34;119.28;;;44.90;;
76546;SDS011;65390;53.014;8.886;2023-01-26T00:33:54;122.60;;;44.42;;
76546;SDS011;65390;53.014;8.886;2023-01-26T00:36:40;118.60;;;44.97;;
76546;SDS011;65390;53.014;8.886;2023-01-26T00:39:07;116.60;;;42.30;;
76546;SDS011;65390;53.014;8.886;2023-01-26T00:41:34;113.93;;;42.90;;
76546;SDS011;65390;53.014;8.886;2023-01-26T00:44:19;126.70;;;44.92;;
76546;SDS011;65390;53.014;8.886;2023-01-26T00:46:45;125.63;;;43.63;;
76546;SDS011;65390;53.014;8.886;2023-01-26T00:49:12;124.43;;;44.83;;
76546;SDS011;65390;53.014;8.886;2023-01-26T00:51:39;125.88;;;45.30;;
76546;SDS011;65390;53.014;8.886;2023-01-26T00:54:05;113.53;;;41.88;;
76546;SDS011;65390;53.014;8.886;2023-01-26T00:56:32;120.35;;;42.63;;
76546;SDS011;65390;53.014;8.886;2023-01-26T00:58:58;121.30;;;43.13;;
76546;SDS011;65390;53.014;8.886;2023-01-26T01:01:25;115.03;;;42.35;;
76546;SDS011;65390;53.014;8.886;2023-01-26T01:03:51;115.32;;;42.15;;
76546;SDS011;65390;53.014;8.886;2023-01-26T01:06:18;119.97;;;40.83;;
76546;SDS011;65390;53.014;8.886;2023-01-26T01:08:44;120.63;;;44.00;;
76546;SDS011;65390;53.014;8.886;2023-01-26T01:11:11;115.85;;;44.78;;
76546;SDS011;65390;53.014;8.886;2023-01-26T01:13:38;121.95;;;43.90;;
76546;SDS011;65390;53.014;8.886;2023-01-26T01:16:05;125.95;;;45.13;;
76546;SDS011;65390;53.014;8.886;2023-01-26T01:18:33;125.68;;;46.35;;
76546;SDS011;65390;53.014;8.886;2023-01-26T01:21:11;125.20;;;43.40;;
76546;SDS011;65390;53.014;8.886;2023-01-26T01:23:40;121.47;;;43.30;;
76546;SDS011;65390;53.014;8.886;2023-01-26T01:26:08;122.18;;;44.00;;
76546;SDS011;65390;53.014;8.886;2023-01-26T01:28:35;122.53;;;41.83;;
76546;SDS011;65390;53.014;8.886;2023-01-26T01:31:07;121.93;;;41.35;;
76546;SDS011;65390;53.014;8.886;2023-01-26T01:33:40;123.03;;;45.03;;
76546;SDS011;65390;53.014;8.886;2023-01-26T01:36:07;136.57;;;47.55;;
76546;SDS011;65390;53.014;8.886;2023-01-26T01:38:37;125.20;;;46.92;;
76546;SDS011;65390;53.014;8.886;2023-01-26T01:41:03;120.80;;;43.28;;
76546;SDS011;65390;53.014;8.886;2023-01-26T01:43:30;126.75;;;44.63;;
76546;SDS011;65390;53.014;8.886;2023-01-26T01:45:56;130.70;;;43.63;;
76546;SDS011;65390;53.014;8.886;2023-01-26T01:51:14;131.82;;;43.13;;
76546;SDS011;65390;53.014;8.886;2023-01-26T01:53:46;141.27;;;46.17;;
76546;SDS011;65390;53.014;8.886;2023-01-26T01:56:22;140.35;;;46.92;;
76546;SDS011;65390;53.014;8.886;2023-01-26T01:58:53;133.52;;;46.35;;
76546;SDS011;65390;53.014;8.886;2023-01-26T02:01:22;130.65;;;46.63;;
76546;SDS011;65390;53.014;8.886;2023-01-26T02:03:50;128.05;;;43.85;;
76546;SDS011;65390;53.014;8.886;2023-01-26T02:06:21;148.30;;;46.70;;
76546;SDS011;65390;53.014;8.886;2023-01-26T02:08:55;138.82;;;47.85;;
76546;SDS011;65390;53.014;8.886;2023-01-26T02:11:39;145.45;;;47.20;;
76546;SDS011;65390;53.014;8.886;2023-01-26T02:14:10;142.40;;;45.97;;
76546;SDS011;65390;53.014;8.886;2023-01-26T02:16:40;132.65;;;47.25;;
76546;SDS011;65390;53.014;8.886;2023-01-26T02:19:12;155.63;;;53.13;;
76546;SDS011;65390;53.014;8.886;2023-01-26T02:21:45;146.45;;;51.90;;
76546;SDS011;65390;53.014;8.886;2023-01-26T02:24:21;132.82;;;48.15;;
76546;SDS011;65390;53.014;8.886;2023-01-26T02:26:54;148.25;;;50.08;;
76546;SDS011;65390;53.014;8.886;2023-01-26T02:29:21;139.00;;;46.42;;
76546;SDS011;65390;53.014;8.886;2023-01-26T02:31:48;139.05;;;48.42;;
76546;SDS011;65390;53.014;8.886;2023-01-26T02:34:13;144.70;;;49.67;;
76546;SDS011;65390;53.014;8.886;2023-01-26T02:36:40;149.93;;;48.00;;
76546;SDS011;65390;53.014;8.886;2023-01-26T02:39:29;147.23;;;47.80;;
76546;SDS011;65390;53.014;8.886;2023-01-26T02:42:19;137.63;;;45.63;;
76546;SDS011;65390;53.014;8.886;2023-01-26T02:45:15;139.02;;;46.53;;
76546;SDS011;65390;53.014;8.886;2023-01-26T02:47:42;143.75;;;48.92;;
76546;SDS011;65390;53.014;8.886;2023-01-26T02:50:10;143.23;;;46.13;;
76546;SDS011;65390;53.014;8.886;2023-01-26T02:52:37;134.18;;;48.20;;
76546;SDS011;65390;53.014;8.886;2023-01-26T02:55:04;140.95;;;49.08;;
76546;SDS011;65390;53.014;8.886;2023-01-26T02:57:54;137.00;;;46.05;;
76546;SDS011;65390;53.014;8.886;2023-01-26T03:00:27;135.80;;;46.92;;
76546;SDS011;65390;53.014;8.886;2023-01-26T03:02:56;139.80;;;45.58;;
76546;SDS011;65390;53.014;8.886;2023-01-26T03:05:25;130.73;;;44.90;;
76546;SDS011;65390;53.014;8.886;2023-01-26T03:07:51;134.88;;;45.05;;
76546;SDS011;65390;53.014;8.886;2023-01-26T03:10:17;140.52;;;43.22;;
76546;SDS011;65390;53.014;8.886;2023-01-26T03:12:44;136.45;;;45.53;;
76546;SDS011;65390;53.014;8.886;2023-01-26T03:15:11;135.07;;;45.03;;
76546;SDS011;65390;53.014;8.886;2023-01-26T03:18:03;139.32;;;45.20;;
76546;SDS011;65390;53.014;8.886;2023-01-26T03:20:50;142.07;;;45.40;;
76546;SDS011;65390;53.014;8.886;2023-01-26T03:23:35;136.93;;;43.70;;
76546;SDS011;65390;53.014;8.886;2023-01-26T03:26:21;131.00;;;45.58;;
76546;SDS011;65390;53.014;8.886;2023-01-26T03:29:06;126.57;;;41.05;;
76546;SDS011;65390;53.014;8.886;2023-01-26T03:31:33;135.68;;;43.10;;
76546;SDS011;65390;53.014;8.886;2023-01-26T03:33:59;140.02;;;43.28;;
76546;SDS011;65390;53.014;8.886;2023-01-26T03:36:25;137.63;;;44.97;;
76546;SDS011;65390;53.014;8.886;2023-01-26T03:38:51;153.90;;;45.70;;
76546;SDS011;65390;53.014;8.886;2023-01-26T03:41:18;138.05;;;45.55;;
76546;SDS011;65390;53.014;8.886;2023-01-26T03:44:03;136.63;;;44.95;;
76546;SDS011;65390;53.014;8.886;2023-01-26T03:46:48;139.13;;;42.60;;
76546;SDS011;65390;53.014;8.886;2023-01-26T03:49:34;137.60;;;45.13;;
76546;SDS011;65390;53.014;8.886;2023-01-26T03:52:19;147.75;;;47.15;;
76546;SDS011;65390;53.014;8.886;2023-01-26T03:55:05;130.73;;;42.38;;
76546;SDS011;65390;53.014;8.886;2023-01-26T03:57:50;128.48;;;42.60;;
76546;SDS011;65390;53.014;8.886;2023-01-26T04:00:20;139.90;;;45.28;;
76546;SDS011;65390;53.014;8.886;2023-01-26T04:02:47;134.82;;;46.80;;
76546;SDS011;65390;53.014;8.886;2023-01-26T04:05:32;139.70;;;45.40;;
76546;SDS011;65390;53.014;8.886;2023-01-26T04:08:17;125.18;;;44.92;;
76546;SDS011;65390;53.014;8.886;2023-01-26T04:10:49;141.38;;;43.58;;
76546;SDS011;65390;53.014;8.886;2023-01-26T04:13:22;136.93;;;43.08;;
76546;SDS011;65390;53.014;8.886;2023-01-26T04:16:08;132.75;;;40.97;;
76546;SDS011;65390;53.014;8.886;2023-01-26T04:18:54;129.60;;;44.00;;
76546;SDS011;65390;53.014;8.886;2023-01-26T04:21:40;130.85;;;41.83;;
76546;SDS011;65390;53.014;8.886;2023-01-26T04:24:07;134.52;;;41.00;;
76546;SDS011;65390;53.014;8.886;2023-01-26T04:26:39;128.18;;;42.85;;
76546;SDS011;65390;53.014;8.886;2023-01-26T04:29:08;134.55;;;40.55;;
76546;SDS011;65390;53.014;8.886;2023-01-26T04:31:38;123.30;;;43.13;;
76546;SDS011;65390;53.014;8.886;2023-01-26T04:34:09;129.43;;;40.42;;
76546;SDS011;65390;53.014;8.886;2023-01-26T04:36:37;128.13;;;40.75;;
76546;SDS011;65390;53.014;8.886;2023-01-26T04:39:05;131.00;;;42.33;;
76546;SDS011;65390;53.014;8.886;2023-01-26T04:41:31;127.47;;;41.22;;
76546;SDS011;65390;53.014;8.886;2023-01-26T04:43:59;121.53;;;39.05;;
76546;SDS011;65390;53.014;8.886;2023-01-26T04:46:25;133.73;;;40.72;;
76546;SDS011;65390;53.014;8.886;2023-01-26T04:48:52;134.88;;;38.58;;
76546;SDS011;65390;53.014;8.886;2023-01-26T04:51:19;116.07;;;37.05;;
76546;SDS011;65390;53.014;8.886;2023-01-26T04:53:47;116.90;;;40.05;;
76546;SDS011;65390;53.014;8.886;2023-01-26T04:56:24;129.25;;;38.83;;
76546;SDS011;65390;53.014;8.886;2023-01-26T04:58:55;121.70;;;41.03;;
76546;SDS011;65390;53.014;8.886;2023-01-26T05:01:24;121.85;;;37.70;;
76546;SDS011;65390;53.014;8.886;2023-01-26T05:03:50;122.63;;;39.75;;
76546;SDS011;65390;53.014;8.886;2023-01-26T05:06:17;129.95;;;40.80;;
76546;SDS011;65390;53.014;8.886;2023-01-26T05:08:44;119.88;;;40.22;;
76546;SDS011;65390;53.014;8.886;2023-01-26T05:11:11;110.32;;;36.13;;
76546;SDS011;65390;53.014;8.886;2023-01-26T05:13:38;124.10;;;38.75;;
76546;SDS011;65390;53.014;8.886;2023-01-26T05:16:05;115.53;;;38.45;;
76546;SDS011;65390;53.014;8.886;2023-01-26T05:18:33;110.93;;;36.10;;
76546;SDS011;65390;53.014;8.886;2023-01-26T05:21:00;111.25;;;37.85;;
76546;SDS011;65390;53.014;8.886;2023-01-26T05:23:26;102.47;;;37.00;;
76546;SDS011;65390;53.014;8.886;2023-01-26T05:25:53;112.32;;;35.30;;
76546;SDS011;65390;53.014;8.886;2023-01-26T05:28:19;112.60;;;39.10;;
76546;SDS011;65390;53.014;8.886;2023-01-26T05:30:46;108.00;;;35.97;;
76546;SDS011;65390;53.014;8.886;2023-01-26T05:33:13;102.10;;;34.33;;
76546;SDS011;65390;53.014;8.886;2023-01-26T05:35:41;104.10;;;34.25;;
76546;SDS011;65390;53.014;8.886;2023-01-26T05:38:08;95.25;;;33.42;;
76546;SDS011;65390;53.014;8.886;2023-01-26T05:40:35;107.13;;;32.08;;
76546;SDS011;65390;53.014;8.886;2023-01-26T05:43:01;108.53;;;35.90;;
76546;SDS011;65390;53.014;8.886;2023-01-26T05:45:28;101.03;;;31.50;;
76546;SDS011;65390;53.014;8.886;2023-01-26T05:47:54;100.80;;;32.60;;
76546;SDS011;65390;53.014;8.886;2023-01-26T05:50:21;96.07;;;31.70;;
76546;SDS011;65390;53.014;8.886;2023-01-26T05:52:47;93.75;;;33.28;;
76546;SDS011;65390;53.014;8.886;2023-01-26T05:55:15;95.93;;;32.40;;
76546;SDS011;65390;53.014;8.886;2023-01-26T05:57:41;92.88;;;30.88;;
76546;SDS011;65390;53.014;8.886;2023-01-26T06:00:08;92.45;;;29.10;;
76546;SDS011;65390;53.014;8.886;2023-01-26T06:02:36;91.90;;;30.15;;
76546;SDS011;65390;53.014;8.886;2023-01-26T06:05:03;95.15;;;29.27;;
76546;SDS011;65390;53.014;8.886;2023-01-26T06:07:31;84.43;;;27.67;;
76546;SDS011;65390;53.014;8.886;2023-01-26T06:09:58;84.32;;;28.83;;
76546;SDS011;65390;53.014;8.886;2023-01-26T06:12:24;93.70;;;31.63;;
76546;SDS011;65390;53.014;8.886;2023-01-26T06:14:51;85.63;;;29.17;;
76546;SDS011;65390;53.014;8.886;2023-01-26T06:17:18;88.93;;;27.17;;
76546;SDS011;65390;53.014;8.886;2023-01-26T06:19:46;89.72;;;27.38;;
76546;SDS011;65390;53.014;8.886;2023-01-26T06:22:13;92.30;;;28.77;;
76546;SDS011;65390;53.014;8.886;2023-01-26T06:24:39;83.47;;;29.27;;
76546;SDS011;65390;53.014;8.886;2023-01-26T06:27:08;83.47;;;29.40;;
76546;SDS011;65390;53.014;8.886;2023-01-26T06:29:38;90.93;;;29.70;;
76546;SDS011;65390;53.014;8.886;2023-01-26T06:34:38;90.97;;;28.35;;
76546;SDS011;65390;53.014;8.886;2023-01-26T06:37:04;87.85;;;30.25;;
76546;SDS011;65390;53.014;8.886;2023-01-26T06:39:32;84.18;;;28.50;;
76546;SDS011;65390;53.014;8.886;2023-01-26T06:41:59;94.35;;;30.38;;
76546;SDS011;65390;53.014;8.886;2023-01-26T06:44:25;80.68;;;28.40;;
76546;SDS011;65390;53.014;8.886;2023-01-26T06:46:52;82.03;;;26.77;;
76546;SDS011;65390;53.014;8.886;2023-01-26T06:49:18;85.63;;;27.70;;
76546;SDS011;65390;53.014;8.886;2023-01-26T06:52:09;87.70;;;25.70;;
76546;SDS011;65390;53.014;8.886;2023-01-26T06:57:23;67.57;;;22.33;;
76546;SDS011;65390;53.014;8.886;2023-01-26T06:59:50;68.82;;;25.65;;
76546;SDS011;65390;53.014;8.886;2023-01-26T07:02:17;69.97;;;23.88;;
76546;SDS011;65390;53.014;8.886;2023-01-26T07:04:46;70.78;;;26.02;;
76546;SDS011;65390;53.014;8.886;2023-01-26T07:07:16;70.03;;;23.08;;
76546;SDS011;65390;53.014;8.886;2023-01-26T07:09:42;70.32;;;24.70;;
76546;SDS011;65390;53.014;8.886;2023-01-26T07:12:09;73.60;;;24.83;;
76546;SDS011;65390;53.014;8.886;2023-01-26T07:14:35;67.95;;;24.20;;
76546;SDS011;65390;53.014;8.886;2023-01-26T07:17:02;64.53;;;22.05;;
76546;SDS011;65390;53.014;8.886;2023-01-26T07:19:29;66.32;;;22.70;;
76546;SDS011;65390;53.014;8.886;2023-01-26T07:24:28;58.90;;;20.80;;
76546;SDS011;65390;53.014;8.886;2023-01-26T07:26:55;61.03;;;20.90;;
76546;SDS011;65390;53.014;8.886;2023-01-26T07:29:24;50.45;;;19.83;;
76546;SDS011;65390;53.014;8.886;2023-01-26T07:31:50;57.28;;;21.42;;
76546;SDS011;65390;53.014;8.886;2023-01-26T07:34:17;60.85;;;20.70;;
76546;SDS011;65390;53.014;8.886;2023-01-26T07:36:43;56.97;;;20.55;;
76546;SDS011;65390;53.014;8.886;2023-01-26T07:39:10;51.80;;;19.23;;
76546;SDS011;65390;53.014;8.886;2023-01-26T07:41:37;57.42;;;19.75;;
76546;SDS011;65390;53.014;8.886;2023-01-26T07:44:07;53.72;;;19.05;;
76546;SDS011;65390;53.014;8.886;2023-01-26T07:46:34;43.03;;;17.35;;
76546;SDS011;65390;53.014;8.886;2023-01-26T07:49:00;44.75;;;18.10;;
76546;SDS011;65390;53.014;8.886;2023-01-26T07:51:25;46.85;;;18.30;;
76546;SDS011;65390;53.014;8.886;2023-01-26T07:53:51;48.42;;;17.67;;
76546;SDS011;65390;53.014;8.886;2023-01-26T07:56:18;47.05;;;17.15;;
76546;SDS011;65390;53.014;8.886;2023-01-26T07:58:47;48.97;;;17.88;;
76546;SDS011;65390;53.014;8.886;2023-01-26T08:01:16;48.15;;;17.23;;
76546;SDS011;65390;53.014;8.886;2023-01-26T08:03:42;45.08;;;16.95;;
76546;SDS011;65390;53.014;8.886;2023-01-26T08:06:11;42.15;;;17.90;;
76546;SDS011;65390;53.014;8.886;2023-01-26T08:08:37;42.65;;;17.08;;
76546;SDS011;65390;53.014;8.886;2023-01-26T08:11:06;41.93;;;18.17;;
76546;SDS011;65390;53.014;8.886;2023-01-26T08:13:32;46.70;;;17.25;;
76546;SDS011;65390;53.014;8.886;2023-01-26T08:16:07;40.15;;;16.63;;
76546;SDS011;65390;53.014;8.886;2023-01-26T08:18:36;44.33;;;18.52;;
76546;SDS011;65390;53.014;8.886;2023-01-26T08:21:08;44.92;;;18.08;;
76546;SDS011;65390;53.014;8.886;2023-01-26T08:23:36;47.30;;;18.90;;
76546;SDS011;65390;53.014;8.886;2023-01-26T08:26:04;48.17;;;17.10;;
76546;SDS011;65390;53.014;8.886;2023-01-26T08:28:32;48.50;;;19.17;;
76546;SDS011;65390;53.014;8.886;2023-01-26T08:31:03;47.33;;;18.80;;
76546;SDS011;65390;53.014;8.886;2023-01-26T08:33:31;47.88;;;17.70;;
76546;SDS011;65390;53.014;8.886;2023-01-26T08:38:28;38.60;;;15.30;;
76546;SDS011;65390;53.014;8.886;2023-01-26T08:40:57;42.65;;;17.52;;
76546;SDS011;65390;53.014;8.886;2023-01-26T08:43:24;37.63;;;16.73;;
76546;SDS011;65390;53.014;8.886;2023-01-26T08:45:51;41.13;;;15.88;;
76546;SDS011;65390;53.014;8.886;2023-01-26T08:48:17;57.03;;;26.73;;
76546;SDS011;65390;53.014;8.886;2023-01-26T08:50:42;46.00;;;19.02;;
76546;SDS011;65390;53.014;8.886;2023-01-26T08:53:08;39.80;;;16.70;;
76546;SDS011;65390;53.014;8.886;2023-01-26T08:55:33;42.08;;;17.98;;
76546;SDS011;65390;53.014;8.886;2023-01-26T08:57:59;35.17;;;16.25;;
76546;SDS011;65390;53.014;8.886;2023-01-26T09:00:26;41.28;;;17.90;;
76546;SDS011;65390;53.014;8.886;2023-01-26T09:02:58;39.55;;;17.83;;
76546;SDS011;65390;53.014;8.886;2023-01-26T09:05:24;38.72;;;16.10;;
76546;SDS011;65390;53.014;8.886;2023-01-26T09:07:50;37.97;;;16.55;;
76546;SDS011;65390;53.014;8.886;2023-01-26T09:10:15;37.80;;;16.02;;
76546;SDS011;65390;53.014;8.886;2023-01-26T09:12:40;38.75;;;15.80;;
76546;SDS011;65390;53.014;8.886;2023-01-26T09:15:06;36.22;;;15.75;;
76546;SDS011;65390;53.014;8.886;2023-01-26T09:17:32;32.08;;;15.30;;
76546;SDS011;65390;53.014;8.886;2023-01-26T09:19:58;38.65;;;15.02;;
76546;SDS011;65390;53.014;8.886;2023-01-26T09:22:23;36.60;;;15.60;;
76546;SDS011;65390;53.014;8.886;2023-01-26T09:24:49;36.13;;;14.60;;
76546;SDS011;65390;53.014;8.886;2023-01-26T09:27:14;34.33;;;15.38;;
76546;SDS011;65390;53.014;8.886;2023-01-26T09:29:39;36.03;;;16.30;;
76546;SDS011;65390;53.014;8.886;2023-01-26T09:32:05;40.17;;;15.95;;
76546;SDS011;65390;53.014;8.886;2023-01-26T09:34:30;34.60;;;15.25;;
76546;SDS011;65390;53.014;8.886;2023-01-26T09:36:57;34.78;;;14.63;;
76546;SDS011;65390;53.014;8.886;2023-01-26T09:39:22;46.92;;;15.48;;
76546;SDS011;65390;53.014;8.886;2023-01-26T09:44:43;34.15;;;14.48;;
76546;SDS011;65390;53.014;8.886;2023-01-26T09:50:02;39.90;;;15.05;;
76546;SDS011;65390;53.014;8.886;2023-01-26T09:55:05;28.73;;;12.82;;
76546;SDS011;65390;53.014;8.886;2023-01-26T10:00:32;30.70;;;13.63;;
76546;SDS011;65390;53.014;8.886;2023-01-26T10:06:14;33.15;;;14.18;;
76546;SDS011;65390;53.014;8.886;2023-01-26T10:08:46;31.33;;;14.30;;
76546;SDS011;65390;53.014;8.886;2023-01-26T10:11:22;36.35;;;15.27;;
76546;SDS011;65390;53.014;8.886;2023-01-26T10:14:19;33.28;;;14.95;;
76546;SDS011;65390;53.014;8.886;2023-01-26T10:16:50;33.90;;;15.23;;
76546;SDS011;65390;53.014;8.886;2023-01-26T10:19:31;39.38;;;14.73;;
76546;SDS011;65390;53.014;8.886;2023-01-26T10:22:04;50.33;;;19.55;;
76546;SDS011;65390;53.014;8.886;2023-01-26T10:24:36;37.88;;;16.02;;
76546;SDS011;65390;53.014;8.886;2023-01-26T10:27:05;83.13;;;37.67;;
76546;SDS011;65390;53.014;8.886;2023-01-26T10:29:35;39.40;;;16.92;;
76546;SDS011;65390;53.014;8.886;2023-01-26T10:32:01;38.55;;;15.75;;
76546;SDS011;65390;53.014;8.886;2023-01-26T10:34:30;35.20;;;15.00;;
76546;SDS011;65390;53.014;8.886;2023-01-26T10:39:55;37.03;;;14.52;;
76546;SDS011;65390;53.014;8.886;2023-01-26T10:42:28;43.40;;;16.13;;
76546;SDS011;65390;53.014;8.886;2023-01-26T10:44:59;66.63;;;23.42;;
76546;SDS011;65390;53.014;8.886;2023-01-26T10:47:29;45.67;;;18.92;;
76546;SDS011;65390;53.014;8.886;2023-01-26T10:53:03;76.45;;;28.80;;
76546;SDS011;65390;53.014;8.886;2023-01-26T10:55:31;68.05;;;19.42;;
76546;SDS011;65390;53.014;8.886;2023-01-26T10:57:59;55.60;;;17.40;;
76546;SDS011;65390;53.014;8.886;2023-01-26T11:00:29;73.55;;;25.35;;
76546;SDS011;65390;53.014;8.886;2023-01-26T11:03:16;62.65;;;22.45;;
76546;SDS011;65390;53.014;8.886;2023-01-26T11:05:44;137.90;;;45.13;;
76546;SDS011;65390;53.014;8.886;2023-01-26T11:11:00;77.68;;;23.23;;
76546;SDS011;65390;53.014;8.886;2023-01-26T11:13:28;71.88;;;22.77;;
76546;SDS011;65390;53.014;8.886;2023-01-26T11:16:16;84.70;;;30.30;;
76546;SDS011;65390;53.014;8.886;2023-01-26T11:21:58;106.85;;;38.97;;
76546;SDS011;65390;53.014;8.886;2023-01-26T11:35:59;97.85;;;37.40;;
76546;SDS011;65390;53.014;8.886;2023-01-26T11:38:43;84.88;;;28.63;;
76546;SDS011;65390;53.014;8.886;2023-01-26T11:44:20;88.72;;;24.42;;
76546;SDS011;65390;53.014;8.886;2023-01-26T11:49:52;79.10;;;30.30;;
76546;SDS011;65390;53.014;8.886;2023-01-26T11:58:36;94.45;;;27.35;;
76546;SDS011;65390;53.014;8.886;2023-01-26T12:03:59;103.65;;;28.77;;
76546;SDS011;65390;53.014;8.886;2023-01-26T12:06:29;102.43;;;29.45;;
76546;SDS011;65390;53.014;8.886;2023-01-26T12:09:05;97.03;;;29.88;;
76546;SDS011;65390;53.014;8.886;2023-01-26T12:11:54;116.03;;;29.75;;
76546;SDS011;65390;53.014;8.886;2023-01-26T12:14:35;93.05;;;27.13;;
76546;SDS011;65390;53.014;8.886;2023-01-26T12:23:23;89.78;;;25.92;;
76546;SDS011;65390;53.014;8.886;2023-01-26T12:26:01;95.05;;;29.40;;
76546;SDS011;65390;53.014;8.886;2023-01-26T12:28:41;113.17;;;30.77;;
76546;SDS011;65390;53.014;8.886;2023-01-26T12:31:30;117.07;;;31.55;;
76546;SDS011;65390;53.014;8.886;2023-01-26T12:34:11;110.93;;;30.63;;
76546;SDS011;65390;53.014;8.886;2023-01-26T12:39:41;81.88;;;24.67;;
76546;SDS011;65390;53.014;8.886;2023-01-26T12:45:00;92.50;;;24.70;;
76546;SDS011;65390;53.014;8.886;2023-01-26T12:47:42;101.47;;;25.73;;
76546;SDS011;65390;53.014;8.886;2023-01-26T12:50:31;91.00;;;28.23;;
76546;SDS011;65390;53.014;8.886;2023-01-26T12:59:05;108.40;;;27.05;;
76546;SDS011;65390;53.014;8.886;2023-01-26T13:01:40;85.82;;;26.30;;
76546;SDS011;65390;53.014;8.886;2023-01-26T13:04:13;83.70;;;22.25;;
76546;SDS011;65390;53.014;8.886;2023-01-26T13:06:41;90.57;;;31.08;;
76546;SDS011;65390;53.014;8.886;2023-01-26T13:09:25;125.80;;;36.25;;
76546;SDS011;65390;53.014;8.886;2023-01-26T13:11:56;157.40;;;44.95;;
76546;SDS011;65390;53.014;8.886;2023-01-26T13:14:34;112.05;;;35.88;;
76546;SDS011;65390;53.014;8.886;2023-01-26T13:24:58;61.60;;;18.00;;
76546;SDS011;65390;53.014;8.886;2023-01-26T13:35:36;50.72;;;15.90;;
76546;SDS011;65390;53.014;8.886;2023-01-26T13:38:08;54.88;;;16.63;;
76546;SDS011;65390;53.014;8.886;2023-01-26T13:40:46;69.00;;;20.88;;
76546;SDS011;65390;53.014;8.886;2023-01-26T13:46:42;88.78;;;20.98;;
76546;SDS011;65390;53.014;8.886;2023-01-26T13:49:26;78.70;;;21.88;;
76546;SDS011;65390;53.014;8.886;2023-01-26T13:52:14;77.50;;;22.50;;
76546;SDS011;65390;53.014;8.886;2023-01-26T13:57:10;70.07;;;21.40;;
76546;SDS011;65390;53.014;8.886;2023-01-26T13:59:52;70.60;;;22.17;;
76546;SDS011;65390;53.014;8.886;2023-01-26T14:02:28;77.47;;;23.73;;
76546;SDS011;65390;53.014;8.886;2023-01-26T14:05:00;76.20;;;21.48;;
76546;SDS011;65390;53.014;8.886;2023-01-26T14:07:39;80.25;;;20.77;;
76546;SDS011;65390;53.014;8.886;2023-01-26T14:10:18;66.15;;;21.20;;
76546;SDS011;65390;53.014;8.886;2023-01-26T14:12:50;69.47;;;21.27;;
76546;SDS011;65390;53.014;8.886;2023-01-26T14:15:23;60.22;;;18.98;;
76546;SDS011;65390;53.014;8.886;2023-01-26T14:18:03;71.20;;;21.55;;
76546;SDS011;65390;53.014;8.886;2023-01-26T14:20:35;64.22;;;18.02;;
76546;SDS011;65390;53.014;8.886;2023-01-26T14:23:13;71.18;;;19.88;;
76546;SDS011;65390;53.014;8.886;2023-01-26T14:28:57;55.10;;;18.25;;
76546;SDS011;65390;53.014;8.886;2023-01-26T14:31:33;67.95;;;18.65;;
76546;SDS011;65390;53.014;8.886;2023-01-26T14:37:10;57.30;;;16.73;;
76546;SDS011;65390;53.014;8.886;2023-01-26T14:39:41;48.97;;;16.55;;
76546;SDS011;65390;53.014;8.886;2023-01-26T14:42:21;57.53;;;17.20;;
76546;SDS011;65390;53.014;8.886;2023-01-26T14:44:47;55.58;;;17.48;;
76546;SDS011;65390;53.014;8.886;2023-01-26T14:47:27;62.30;;;18.00;;
76546;SDS011;65390;53.014;8.886;2023-01-26T14:49:58;59.08;;;17.92;;
76546;SDS011;65390;53.014;8.886;2023-01-26T14:55:03;54.08;;;15.88;;
76546;SDS011;65390;53.014;8.886;2023-01-26T14:57:31;60.22;;;17.23;;
76546;SDS011;65390;53.014;8.886;2023-01-26T15:00:37;48.53;;;17.50;;
76546;SDS011;65390;53.014;8.886;2023-01-26T15:03:29;57.13;;;18.13;;
76546;SDS011;65390;53.014;8.886;2023-01-26T15:06:16;56.70;;;17.02;;
76546;SDS011;65390;53.014;8.886;2023-01-26T15:08:56;56.90;;;17.67;;
76546;SDS011;65390;53.014;8.886;2023-01-26T15:11:37;56.08;;;18.58;;
76546;SDS011;65390;53.014;8.886;2023-01-26T15:23:52;58.85;;;16.17;;
76546;SDS011;65390;53.014;8.886;2023-01-26T15:26:28;45.65;;;16.67;;
76546;SDS011;65390;53.014;8.886;2023-01-26T15:28:57;51.95;;;15.38;;
76546;SDS011;65390;53.014;8.886;2023-01-26T15:31:29;48.58;;;15.10;;
76546;SDS011;65390;53.014;8.886;2023-01-26T15:33:59;34.97;;;14.15;;
76546;SDS011;65390;53.014;8.886;2023-01-26T15:39:18;45.22;;;15.07;;
76546;SDS011;65390;53.014;8.886;2023-01-26T15:41:57;47.17;;;15.68;;
76546;SDS011;65390;53.014;8.886;2023-01-26T15:44:26;40.63;;;14.15;;
76546;SDS011;65390;53.014;8.886;2023-01-26T15:46:53;46.08;;;15.93;;
76546;SDS011;65390;53.014;8.886;2023-01-26T15:49:21;42.83;;;14.85;;
76546;SDS011;65390;53.014;8.886;2023-01-26T15:51:48;42.08;;;15.93;;
76546;SDS011;65390;53.014;8.886;2023-01-26T15:54:17;36.85;;;13.52;;
76546;SDS011;65390;53.014;8.886;2023-01-26T15:56:46;45.40;;;14.52;;
76546;SDS011;65390;53.014;8.886;2023-01-26T15:59:13;46.33;;;14.50;;
76546;SDS011;65390;53.014;8.886;2023-01-26T16:01:39;58.67;;;18.23;;
76546;SDS011;65390;53.014;8.886;2023-01-26T16:04:09;53.85;;;15.07;;
76546;SDS011;65390;53.014;8.886;2023-01-26T16:06:39;41.65;;;12.93;;
76546;SDS011;65390;53.014;8.886;2023-01-26T16:09:06;47.25;;;15.35;;
76546;SDS011;65390;53.014;8.886;2023-01-26T16:11:34;37.42;;;11.15;;
76546;SDS011;65390;53.014;8.886;2023-01-26T16:14:03;46.95;;;13.80;;
76546;SDS011;65390;53.014;8.886;2023-01-26T16:16:30;119.00;;;42.30;;
76546;SDS011;65390;53.014;8.886;2023-01-26T16:18:59;48.67;;;16.67;;
76546;SDS011;65390;53.014;8.886;2023-01-26T16:21:27;112.22;;;37.70;;
76546;SDS011;65390;53.014;8.886;2023-01-26T16:23:56;34.70;;;11.63;;
76546;SDS011;65390;53.014;8.886;2023-01-26T16:26:24;32.13;;;11.85;;
76546;SDS011;65390;53.014;8.886;2023-01-26T16:28:52;60.85;;;15.07;;
76546;SDS011;65390;53.014;8.886;2023-01-26T16:31:24;37.65;;;12.35;;
76546;SDS011;65390;53.014;8.886;2023-01-26T16:34:08;49.40;;;16.50;;
76546;SDS011;65390;53.014;8.886;2023-01-26T16:36:34;70.60;;;26.17;;
76546;SDS011;65390;53.014;8.886;2023-01-26T16:39:01;53.25;;;16.95;;
76546;SDS011;65390;53.014;8.886;2023-01-26T16:41:28;39.15;;;13.82;;
76546;SDS011;65390;53.014;8.886;2023-01-26T16:43:58;39.23;;;12.00;;
76546;SDS011;65390;53.014;8.886;2023-01-26T16:46:27;45.50;;;8.57;;